<?xml version="1.0" encoding="UTF-8" standalone="no" ?>
<gpx xmlns="http://www.topografix.com/GPX/1/1" xmlns:xsi="http://www.w3.org/2001/XMLSchema-instance" xsi:schemaLocation="http://www.topografix.com/GPX/1/1 http://www.topografix.com/GPX/1/1/gpx.xsd" version="1.1" creator="VisuGPX - https://www.visugpx.com">
  <metadata>
    <name>Arêches-Le Grand Mont</name>
    <desc><![CDATA[Carte IGN TOP25 : 3532OT
Niveau D.
Départ d'Arêches avec le télécabine de Cuvy gratuit le dimanche de la Pierra Menta.

Réalisée au moment de la Pierra Menta.]]></desc>
  </metadata>
  <trk>
    <name><![CDATA[Arêches-Le Grand Mont]]></name>
    <cmt><![CDATA[Carte IGN TOP25 : 3532OT
Départ d'Arêches avec le télécabine de Cuvy gratuit le dimanche de la Pierra Menta.]]></cmt>
    <desc><![CDATA[Réalisée au moment de la Pierra Menta.]]></desc>
    <trkseg>
      <trkpt lat="45.65367" lon="6.56223">
        <ele>2037</ele>
        <time>2020-12-06T07:00:00.161Z</time>
      </trkpt>
      <trkpt lat="45.65298" lon="6.56263">
        <ele>2025</ele>
        <time>2020-12-06T07:01:50.213Z</time>
      </trkpt>
      <trkpt lat="45.65197" lon="6.56278">
        <ele>2014</ele>
        <time>2020-12-06T07:04:11.536Z</time>
      </trkpt>
      <trkpt lat="45.65031" lon="6.56246">
        <ele>2012</ele>
        <time>2020-12-06T07:08:03.873Z</time>
      </trkpt>
      <trkpt lat="45.64984" lon="6.56264">
        <ele>2015</ele>
        <time>2020-12-06T07:09:19.875Z</time>
      </trkpt>
      <trkpt lat="45.64911" lon="6.56254">
        <ele>2020</ele>
        <time>2020-12-06T07:11:18.148Z</time>
      </trkpt>
      <trkpt lat="45.64808" lon="6.56207">
        <ele>2032</ele>
        <time>2020-12-06T07:14:35.876Z</time>
      </trkpt>
      <trkpt lat="45.64743" lon="6.56154">
        <ele>2043</ele>
        <time>2020-12-06T07:17:07.947Z</time>
      </trkpt>
      <trkpt lat="45.64611" lon="6.56027">
        <ele>2070</ele>
        <time>2020-12-06T07:23:02.863Z</time>
      </trkpt>
      <trkpt lat="45.64437" lon="6.55848">
        <ele>2116</ele>
        <time>2020-12-06T07:32:01.575Z</time>
      </trkpt>
      <trkpt lat="45.64364" lon="6.55762">
        <ele>2139</ele>
        <time>2020-12-06T07:36:24.296Z</time>
      </trkpt>
      <trkpt lat="45.6432" lon="6.55682">
        <ele>2157</ele>
        <time>2020-12-06T07:39:47.706Z</time>
      </trkpt>
      <trkpt lat="45.64288" lon="6.55598">
        <ele>2174</ele>
        <time>2020-12-06T07:43:05.621Z</time>
      </trkpt>
      <trkpt lat="45.64238" lon="6.55473">
        <ele>2201</ele>
        <time>2020-12-06T07:48:09.239Z</time>
      </trkpt>
      <trkpt lat="45.64177" lon="6.55339">
        <ele>2231</ele>
        <time>2020-12-06T07:53:51.732Z</time>
      </trkpt>
      <trkpt lat="45.64119" lon="6.55233">
        <ele>2257</ele>
        <time>2020-12-06T07:58:46.387Z</time>
      </trkpt>
      <trkpt lat="45.64078" lon="6.55138">
        <ele>2279</ele>
        <time>2020-12-06T08:02:51.743Z</time>
      </trkpt>
      <trkpt lat="45.6401" lon="6.55053">
        <ele>2304</ele>
        <time>2020-12-06T08:07:20.049Z</time>
      </trkpt>
      <trkpt lat="45.63948" lon="6.54989">
        <ele>2323</ele>
        <time>2020-12-06T08:10:49.085Z</time>
      </trkpt>
      <trkpt lat="45.63869" lon="6.55002">
        <ele>2342</ele>
        <time>2020-12-06T08:14:11.747Z</time>
      </trkpt>
      <trkpt lat="45.63773" lon="6.55049">
        <ele>2364</ele>
        <time>2020-12-06T08:18:05.923Z</time>
      </trkpt>
      <trkpt lat="45.63689" lon="6.55036">
        <ele>2378</ele>
        <time>2020-12-06T08:20:57.805Z</time>
      </trkpt>
      <trkpt lat="45.63606" lon="6.54988">
        <ele>2391</ele>
        <time>2020-12-06T08:23:47.721Z</time>
      </trkpt>
      <trkpt lat="45.63532" lon="6.54925">
        <ele>2402</ele>
        <time>2020-12-06T08:26:28.095Z</time>
      </trkpt>
      <trkpt lat="45.63416" lon="6.54842">
        <ele>2419</ele>
        <time>2020-12-06T08:30:50.015Z</time>
      </trkpt>
      <trkpt lat="45.633" lon="6.54772">
        <ele>2441</ele>
        <time>2020-12-06T08:35:58.464Z</time>
      </trkpt>
      <trkpt lat="45.63151" lon="6.54666">
        <ele>2482</ele>
        <time>2020-12-06T08:44:23.334Z</time>
      </trkpt>
      <trkpt lat="45.63062" lon="6.5457">
        <ele>2516</ele>
        <time>2020-12-06T08:50:40.643Z</time>
      </trkpt>
      <trkpt lat="45.63046" lon="6.54423">
        <ele>2547</ele>
        <time>2020-12-06T08:56:26.904Z</time>
      </trkpt>
      <trkpt lat="45.63084" lon="6.54325">
        <ele>2570</ele>
        <time>2020-12-06T09:00:32.220Z</time>
      </trkpt>
      <trkpt lat="45.63116" lon="6.54225">
        <ele>2590</ele>
        <time>2020-12-06T09:03:48.426Z</time>
      </trkpt>
      <trkpt lat="45.63161" lon="6.54085">
        <ele>2612</ele>
        <time>2020-12-06T09:07:51.904Z</time>
      </trkpt>
      <trkpt lat="45.63109" lon="6.5398">
        <ele>2627</ele>
        <time>2020-12-06T09:11:00.024Z</time>
      </trkpt>
      <trkpt lat="45.63055" lon="6.53917">
        <ele>2638</ele>
        <time>2020-12-06T09:13:17.236Z</time>
      </trkpt>
      <trkpt lat="45.63055" lon="6.53832">
        <ele>2646</ele>
        <time>2020-12-06T09:15:09.063Z</time>
      </trkpt>
      <trkpt lat="45.63156" lon="6.53749">
        <ele>2661</ele>
        <time>2020-12-06T09:18:48.415Z</time>
      </trkpt>
      <trkpt lat="45.63197" lon="6.53687">
        <ele>2670</ele>
        <time>2020-12-06T09:20:47.993Z</time>
      </trkpt>
      <trkpt lat="45.63197" lon="6.53687">
        <ele>2679</ele>
        <time>2020-12-06T12:30:00.075Z</time>
      </trkpt>
      <trkpt lat="45.63187" lon="6.53835">
        <ele>2637</ele>
        <time>2020-12-06T12:33:09.168Z</time>
      </trkpt>
      <trkpt lat="45.63179" lon="6.53921">
        <ele>2625</ele>
        <time>2020-12-06T12:34:46.183Z</time>
      </trkpt>
      <trkpt lat="45.63163" lon="6.54006">
        <ele>2618</ele>
        <time>2020-12-06T12:36:16.330Z</time>
      </trkpt>
      <trkpt lat="45.63162" lon="6.54086">
        <ele>2613</ele>
        <time>2020-12-06T12:37:42.410Z</time>
      </trkpt>
      <trkpt lat="45.63117" lon="6.54225">
        <ele>2596</ele>
        <time>2020-12-06T12:41:04.390Z</time>
      </trkpt>
      <trkpt lat="45.63084" lon="6.54326">
        <ele>2574</ele>
        <time>2020-12-06T12:44:27.106Z</time>
      </trkpt>
      <trkpt lat="45.63046" lon="6.54423">
        <ele>2545</ele>
        <time>2020-12-06T12:48:27.040Z</time>
      </trkpt>
      <trkpt lat="45.63062" lon="6.5457">
        <ele>2504</ele>
        <time>2020-12-06T12:53:25.062Z</time>
      </trkpt>
      <trkpt lat="45.63151" lon="6.54667">
        <ele>2468</ele>
        <time>2020-12-06T12:57:03.680Z</time>
      </trkpt>
      <trkpt lat="45.633" lon="6.54774">
        <ele>2441</ele>
        <time>2020-12-06T13:01:17.323Z</time>
      </trkpt>
      <trkpt lat="45.63414" lon="6.54844">
        <ele>2430</ele>
        <time>2020-12-06T13:04:21.924Z</time>
      </trkpt>
      <trkpt lat="45.63532" lon="6.54925">
        <ele>2413</ele>
        <time>2020-12-06T13:07:50.401Z</time>
      </trkpt>
      <trkpt lat="45.63606" lon="6.5499">
        <ele>2396</ele>
        <time>2020-12-06T13:10:31.459Z</time>
      </trkpt>
      <trkpt lat="45.63687" lon="6.55038">
        <ele>2377</ele>
        <time>2020-12-06T13:13:22.662Z</time>
      </trkpt>
      <trkpt lat="45.63774" lon="6.55048">
        <ele>2357</ele>
        <time>2020-12-06T13:16:11.432Z</time>
      </trkpt>
      <trkpt lat="45.63869" lon="6.55002">
        <ele>2335</ele>
        <time>2020-12-06T13:19:22.885Z</time>
      </trkpt>
      <trkpt lat="45.63948" lon="6.54989">
        <ele>2318</ele>
        <time>2020-12-06T13:21:53.002Z</time>
      </trkpt>
      <trkpt lat="45.6401" lon="6.55053">
        <ele>2302</ele>
        <time>2020-12-06T13:24:19.256Z</time>
      </trkpt>
      <trkpt lat="45.64077" lon="6.55137">
        <ele>2282</ele>
        <time>2020-12-06T13:27:15.247Z</time>
      </trkpt>
      <trkpt lat="45.64118" lon="6.55235">
        <ele>2263</ele>
        <time>2020-12-06T13:30:05.889Z</time>
      </trkpt>
      <trkpt lat="45.64176" lon="6.55339">
        <ele>2237</ele>
        <time>2020-12-06T13:33:43.172Z</time>
      </trkpt>
      <trkpt lat="45.64238" lon="6.55473">
        <ele>2203</ele>
        <time>2020-12-06T13:38:12.716Z</time>
      </trkpt>
      <trkpt lat="45.64289" lon="6.55598">
        <ele>2173</ele>
        <time>2020-12-06T13:42:08.009Z</time>
      </trkpt>
      <trkpt lat="45.6432" lon="6.55684">
        <ele>2154</ele>
        <time>2020-12-06T13:44:36.361Z</time>
      </trkpt>
      <trkpt lat="45.64364" lon="6.55764">
        <ele>2135</ele>
        <time>2020-12-06T13:47:04.414Z</time>
      </trkpt>
      <trkpt lat="45.64437" lon="6.55848">
        <ele>2113</ele>
        <time>2020-12-06T13:50:13.493Z</time>
      </trkpt>
      <trkpt lat="45.64506" lon="6.55918">
        <ele>2093</ele>
        <time>2020-12-06T13:52:59.434Z</time>
      </trkpt>
      <trkpt lat="45.64549" lon="6.5603">
        <ele>2073</ele>
        <time>2020-12-06T13:55:58.411Z</time>
      </trkpt>
      <trkpt lat="45.64594" lon="6.56112">
        <ele>2055</ele>
        <time>2020-12-06T13:58:25.731Z</time>
      </trkpt>
      <trkpt lat="45.64651" lon="6.56223">
        <ele>2033</ele>
        <time>2020-12-06T14:01:37.528Z</time>
      </trkpt>
      <trkpt lat="45.64698" lon="6.56279">
        <ele>2018</ele>
        <time>2020-12-06T14:03:40.098Z</time>
      </trkpt>
      <trkpt lat="45.64738" lon="6.5635">
        <ele>2004</ele>
        <time>2020-12-06T14:05:40.488Z</time>
      </trkpt>
      <trkpt lat="45.6477" lon="6.56412">
        <ele>1993</ele>
        <time>2020-12-06T14:07:18.545Z</time>
      </trkpt>
      <trkpt lat="45.64796" lon="6.56481">
        <ele>1982</ele>
        <time>2020-12-06T14:08:54.843Z</time>
      </trkpt>
      <trkpt lat="45.6482" lon="6.56559">
        <ele>1972</ele>
        <time>2020-12-06T14:10:28.948Z</time>
      </trkpt>
      <trkpt lat="45.64877" lon="6.56619">
        <ele>1962</ele>
        <time>2020-12-06T14:12:17.765Z</time>
      </trkpt>
      <trkpt lat="45.6493" lon="6.56646">
        <ele>1954</ele>
        <time>2020-12-06T14:13:43.597Z</time>
      </trkpt>
      <trkpt lat="45.64977" lon="6.56665">
        <ele>1948</ele>
        <time>2020-12-06T14:14:57.849Z</time>
      </trkpt>
      <trkpt lat="45.65047" lon="6.56661">
        <ele>1939</ele>
        <time>2020-12-06T14:16:43.629Z</time>
      </trkpt>
      <trkpt lat="45.6514" lon="6.5671">
        <ele>1927</ele>
        <time>2020-12-06T14:19:12.482Z</time>
      </trkpt>
      <trkpt lat="45.65229" lon="6.56717">
        <ele>1916</ele>
        <time>2020-12-06T14:21:25.842Z</time>
      </trkpt>
      <trkpt lat="45.65332" lon="6.56805">
        <ele>1904</ele>
        <time>2020-12-06T14:24:16.071Z</time>
      </trkpt>
      <trkpt lat="45.65418" lon="6.56816">
        <ele>1900</ele>
        <time>2020-12-06T14:26:14.909Z</time>
      </trkpt>
      <trkpt lat="45.65542" lon="6.56783">
        <ele>1904</ele>
        <time>2020-12-06T14:29:31.274Z</time>
      </trkpt>
      <trkpt lat="45.65665" lon="6.56683">
        <ele>1918</ele>
        <time>2020-12-06T14:33:20.213Z</time>
      </trkpt>
      <trkpt lat="45.65721" lon="6.56718">
        <ele>1923</ele>
        <time>2020-12-06T14:34:54.726Z</time>
      </trkpt>
      <trkpt lat="45.65776" lon="6.56662">
        <ele>1927</ele>
        <time>2020-12-06T14:36:29.429Z</time>
      </trkpt>
      <trkpt lat="45.65885" lon="6.56623">
        <ele>1925</ele>
        <time>2020-12-06T14:39:04.006Z</time>
      </trkpt>
      <trkpt lat="45.65945" lon="6.5659">
        <ele>1920</ele>
        <time>2020-12-06T14:40:39.662Z</time>
      </trkpt>
      <trkpt lat="45.66024" lon="6.56577">
        <ele>1910</ele>
        <time>2020-12-06T14:42:45.073Z</time>
      </trkpt>
      <trkpt lat="45.6611" lon="6.56521">
        <ele>1893</ele>
        <time>2020-12-06T14:45:31.930Z</time>
      </trkpt>
      <trkpt lat="45.6617" lon="6.56484">
        <ele>1880</ele>
        <time>2020-12-06T14:47:34.494Z</time>
      </trkpt>
      <trkpt lat="45.66187" lon="6.56411">
        <ele>1868</ele>
        <time>2020-12-06T14:49:22.878Z</time>
      </trkpt>
      <trkpt lat="45.66224" lon="6.56453">
        <ele>1856</ele>
        <time>2020-12-06T14:50:58.520Z</time>
      </trkpt>
      <trkpt lat="45.66237" lon="6.56351">
        <ele>1839</ele>
        <time>2020-12-06T14:53:26.379Z</time>
      </trkpt>
      <trkpt lat="45.6628" lon="6.56325">
        <ele>1827</ele>
        <time>2020-12-06T14:55:05.218Z</time>
      </trkpt>
      <trkpt lat="45.66386" lon="6.56417">
        <ele>1796</ele>
        <time>2020-12-06T14:59:21.758Z</time>
      </trkpt>
      <trkpt lat="45.66423" lon="6.56439">
        <ele>1786</ele>
        <time>2020-12-06T15:00:43.725Z</time>
      </trkpt>
      <trkpt lat="45.66482" lon="6.56453">
        <ele>1772</ele>
        <time>2020-12-06T15:02:41.816Z</time>
      </trkpt>
      <trkpt lat="45.66534" lon="6.56472">
        <ele>1760</ele>
        <time>2020-12-06T15:04:25.358Z</time>
      </trkpt>
      <trkpt lat="45.66625" lon="6.56495">
        <ele>1740</ele>
        <time>2020-12-06T15:07:05.066Z</time>
      </trkpt>
      <trkpt lat="45.66801" lon="6.56548">
        <ele>1710</ele>
        <time>2020-12-06T15:11:51.703Z</time>
      </trkpt>
      <trkpt lat="45.66901" lon="6.56583">
        <ele>1696</ele>
        <time>2020-12-06T15:14:36.665Z</time>
      </trkpt>
      <trkpt lat="45.67026" lon="6.56567">
        <ele>1674</ele>
        <time>2020-12-06T15:18:21.789Z</time>
      </trkpt>
      <trkpt lat="45.67089" lon="6.5654">
        <ele>1659</ele>
        <time>2020-12-06T15:20:52.243Z</time>
      </trkpt>
      <trkpt lat="45.67193" lon="6.56477">
        <ele>1623</ele>
        <time>2020-12-06T15:26:08.091Z</time>
      </trkpt>
      <trkpt lat="45.6731" lon="6.56498">
        <ele>1574</ele>
        <time>2020-12-06T15:32:52.728Z</time>
      </trkpt>
      <trkpt lat="45.67351" lon="6.56547">
        <ele>1549</ele>
        <time>2020-12-06T15:36:11.005Z</time>
      </trkpt>
      <trkpt lat="45.67395" lon="6.56559">
        <ele>1529</ele>
        <time>2020-12-06T15:38:54.955Z</time>
      </trkpt>
      <trkpt lat="45.67458" lon="6.5657">
        <ele>1499</ele>
        <time>2020-12-06T15:42:45.333Z</time>
      </trkpt>
      <trkpt lat="45.67514" lon="6.56573">
        <ele>1475</ele>
        <time>2020-12-06T15:45:58.250Z</time>
      </trkpt>
      <trkpt lat="45.67579" lon="6.56605">
        <ele>1445</ele>
        <time>2020-12-06T15:50:01.363Z</time>
      </trkpt>
      <trkpt lat="45.67622" lon="6.5662">
        <ele>1425</ele>
        <time>2020-12-06T15:52:35.512Z</time>
      </trkpt>
      <trkpt lat="45.67722" lon="6.56658">
        <ele>1381</ele>
        <time>2020-12-06T15:58:38.361Z</time>
      </trkpt>
      <trkpt lat="45.67844" lon="6.56683">
        <ele>1325</ele>
        <time>2020-12-06T16:06:11.310Z</time>
      </trkpt>
      <trkpt lat="45.67896" lon="6.56687">
        <ele>1300</ele>
        <time>2020-12-06T16:09:33.167Z</time>
      </trkpt>
      <trkpt lat="45.67986" lon="6.5671">
        <ele>1255</ele>
        <time>2020-12-06T16:15:30.904Z</time>
      </trkpt>
      <trkpt lat="45.68063" lon="6.56734">
        <ele>1217</ele>
        <time>2020-12-06T16:20:27.864Z</time>
      </trkpt>
      <trkpt lat="45.68118" lon="6.56712">
        <ele>1191</ele>
        <time>2020-12-06T16:23:50.573Z</time>
      </trkpt>
      <trkpt lat="45.6817" lon="6.56684">
        <ele>1167</ele>
        <time>2020-12-06T16:26:53.134Z</time>
      </trkpt>
      <trkpt lat="45.68237" lon="6.56654">
        <ele>1139</ele>
        <time>2020-12-06T16:30:26.097Z</time>
      </trkpt>
      <trkpt lat="45.68305" lon="6.56656">
        <ele>1115</ele>
        <time>2020-12-06T16:33:34.389Z</time>
      </trkpt>
      <trkpt lat="45.68427" lon="6.56619">
        <ele>1072</ele>
        <time>2020-12-06T16:39:27.883Z</time>
      </trkpt>
      <trkpt lat="45.68488" lon="6.56562">
        <ele>1045</ele>
        <time>2020-12-06T16:43:18.459Z</time>
      </trkpt>
      <trkpt lat="45.68544" lon="6.56512">
        <ele>1017</ele>
        <time>2020-12-06T16:47:02.459Z</time>
      </trkpt>
    </trkseg>
  </trk>
</gpx>